Time;durP1;ratioP1;P1;durP2;ratioP2;P2;SDS_P1;SDS_P2;PMS_P1;PMS_P2;Temp;Humidity;BMP_temperature;BMP_pressure;BME280_temperature;BME280_humidity;BME280_pressure;Samples;Min_cycle;Max_cycle;Signal;HPM_P1;HPM_P2
2021/09/18 00:01:15;;;;;;;13.93;12.60;;;18.20;99.90;;;;;;6152392;23;20863;-86
2021/09/18 00:03:42;;;;;;;14.80;13.30;;;18.30;99.90;;;;;;6151525;23;21073;-86
2021/09/18 00:06:12;;;;;;;14.00;12.30;;;18.30;99.90;;;;;;6149687;23;20441;-84
2021/09/18 00:08:39;;;;;;;14.80;13.50;;;18.40;99.90;;;;;;6150927;23;20477;-85
2021/09/18 00:11:06;;;;;;;14.67;13.33;;;18.40;99.90;;;;;;6152018;23;20457;-84
2021/09/18 00:13:32;;;;;;;19.13;13.83;;;18.40;99.90;;;;;;6148112;23;20424;-85
2021/09/18 00:16:00;;;;;;;13.90;12.70;;;18.30;99.90;;;;;;6149490;23;20406;-85
2021/09/18 00:18:26;;;;;;;13.63;12.43;;;18.00;99.90;;;;;;6149742;23;20406;-84
2021/09/18 00:20:55;;;;;;;13.97;12.77;;;17.90;99.90;;;;;;6147187;23;20549;-85
2021/09/18 00:23:24;;;;;;;13.27;11.87;;;17.80;99.90;;;;;;6146037;23;20382;-84
2021/09/18 00:25:51;;;;;;;14.10;12.77;;;17.60;99.90;;;;;;6153944;23;21049;-84
2021/09/18 00:28:18;;;;;;;13.70;12.50;;;17.70;99.90;;;;;;6142183;23;20421;-86
2021/09/18 00:30:45;;;;;;;12.53;11.23;;;17.70;99.90;;;;;;6151171;23;20459;-86
2021/09/18 00:33:12;;;;;;;13.43;11.80;;;17.70;99.90;;;;;;6149290;23;20442;-85
2021/09/18 00:35:39;;;;;;;13.67;11.87;;;17.80;99.90;;;;;;6140262;23;20418;-86
2021/09/18 00:38:05;;;;;;;15.53;13.70;;;17.90;99.90;;;;;;6146416;23;20425;-85
2021/09/18 00:40:32;;;;;;;14.40;13.20;;;18.10;99.90;;;;;;6148637;23;20413;-85
2021/09/18 00:42:59;;;;;;;15.47;14.17;;;18.00;99.90;;;;;;6150272;23;20416;-84
2021/09/18 00:45:25;;;;;;;15.73;14.23;;;18.00;99.90;;;;;;6153547;23;20414;-85
2021/09/18 00:47:52;;;;;;;14.83;13.37;;;17.90;99.90;;;;;;6166057;23;20482;-86
2021/09/18 00:50:20;;;;;;;14.13;12.80;;;17.70;99.90;;;;;;6149520;23;20416;-84
2021/09/18 00:52:49;;;;;;;13.50;12.30;;;17.60;99.90;;;;;;6143982;23;20513;-86
2021/09/18 00:55:15;;;;;;;14.20;12.80;;;17.70;99.90;;;;;;6152016;23;20412;-85
2021/09/18 00:57:45;;;;;;;13.70;12.50;;;17.80;99.90;;;;;;6150299;23;21087;-86
2021/09/18 01:00:16;;;;;;;13.77;12.57;;;17.70;99.90;;;;;;6148126;23;20414;-85
2021/09/18 01:02:46;;;;;;;14.13;12.73;;;17.60;99.90;;;;;;6143715;23;20440;-85
2021/09/18 01:05:13;;;;;;;13.63;12.33;;;17.50;99.90;;;;;;6150689;23;20820;-86
2021/09/18 01:07:40;;;;;;;12.80;11.53;;;17.40;99.90;;;;;;6148235;23;20433;-85
2021/09/18 01:10:08;;;;;;;14.57;13.23;;;17.40;99.90;;;;;;6146445;23;20444;-85
2021/09/18 01:13:02;;;;;;;15.00;13.60;;;17.40;99.90;;;;;;6149077;23;20937;-87
2021/09/18 01:15:34;;;;;;;16.00;14.60;;;17.50;99.90;;;;;;6148274;23;20471;-84
2021/09/18 01:18:01;;;;;;;15.33;13.83;;;17.70;99.90;;;;;;6148754;23;20979;-85
2021/09/18 01:20:29;;;;;;;16.90;15.37;;;17.70;99.90;;;;;;6145273;23;20921;-85
2021/09/18 01:23:01;;;;;;;15.43;14.00;;;17.50;99.90;;;;;;6148700;23;20437;-86
2021/09/18 01:25:29;;;;;;;15.40;14.00;;;17.50;99.90;;;;;;6149483;23;20776;-85
2021/09/18 01:27:56;;;;;;;16.60;15.00;;;17.50;99.90;;;;;;6143165;23;20774;-84
2021/09/18 01:30:28;;;;;;;16.03;14.63;;;17.50;99.90;;;;;;6147581;23;21042;-85
2021/09/18 01:32:56;;;;;;;15.27;13.97;;;17.30;99.90;;;;;;6148860;23;20506;-84
2021/09/18 01:35:23;;;;;;;16.83;15.30;;;17.40;99.90;;;;;;6143077;23;20417;-84
2021/09/18 01:37:50;;;;;;;16.30;14.80;;;17.40;99.90;;;;;;6142455;23;20429;-83
2021/09/18 01:40:26;;;;;;;16.83;15.20;;;17.20;99.90;;;;;;6150010;23;20497;-85
2021/09/18 01:42:54;;;;;;;17.10;15.40;;;17.20;99.90;;;;;;6145270;23;20472;-85
2021/09/18 01:45:21;;;;;;;16.27;14.77;;;17.00;99.90;;;;;;6142869;23;20492;-84
2021/09/18 01:47:50;;;;;;;15.50;13.90;;;17.00;99.90;;;;;;6144107;23;20434;-84
2021/09/18 01:50:31;;;;;;;15.37;13.97;;;16.90;99.90;;;;;;6150019;23;20418;-86
2021/09/18 01:53:01;;;;;;;15.40;13.97;;;16.90;99.90;;;;;;6151062;23;20905;-85
2021/09/18 01:55:28;;;;;;;16.20;14.50;;;16.90;99.90;;;;;;6150399;23;20410;-85
2021/09/18 01:57:57;;;;;;;15.37;13.77;;;16.90;99.90;;;;;;6153127;23;20430;-86
2021/09/18 02:00:24;;;;;;;14.30;13.00;;;16.80;99.90;;;;;;6149288;23;20430;-85
2021/09/18 02:02:51;;;;;;;14.00;12.60;;;16.80;99.90;;;;;;6145844;23;20433;-84
2021/09/18 02:05:25;;;;;;;15.33;13.83;;;17.00;99.90;;;;;;6147004;23;20410;-85
2021/09/18 02:07:52;;;;;;;15.20;13.70;;;17.00;99.90;;;;;;6155892;23;20501;-86
2021/09/18 02:10:23;;;;;;;15.30;13.90;;;17.00;99.90;;;;;;6153286;23;20414;-87
2021/09/18 02:12:50;;;;;;;15.97;12.70;;;16.90;99.90;;;;;;6147614;23;21436;-87
2021/09/18 02:15:19;;;;;;;14.00;11.90;;;16.80;99.90;;;;;;6008768;23;20743;-87
2021/09/18 02:17:46;;;;;;;13.30;12.00;;;16.90;99.90;;;;;;6147513;23;20782;-86
2021/09/18 02:20:16;;;;;;;13.83;12.27;;;16.90;99.90;;;;;;6147168;23;20406;-84
2021/09/18 02:22:43;;;;;;;13.17;11.97;;;17.00;99.90;;;;;;6142477;23;20501;-85
2021/09/18 02:25:11;;;;;;;14.00;12.60;;;17.00;99.90;;;;;;6147796;23;20927;-87
2021/09/18 02:27:38;;;;;;;13.60;12.30;;;17.00;99.90;;;;;;6146408;23;20442;-85
2021/09/18 02:30:08;;;;;;;15.60;13.10;;;17.10;99.90;;;;;;6145305;23;20512;-83
2021/09/18 02:32:35;;;;;;;14.50;13.20;;;17.20;99.90;;;;;;6146377;23;20515;-84
2021/09/18 02:35:08;;;;;;;15.63;14.03;;;17.10;99.90;;;;;;6137436;23;21078;-86
2021/09/18 02:37:35;;;;;;;16.13;14.67;;;17.30;99.90;;;;;;6143684;23;20494;-85
2021/09/18 02:40:05;;;;;;;15.53;13.77;;;17.20;99.90;;;;;;6131034;23;20421;-84
2021/09/18 02:42:32;;;;;;;15.77;14.33;;;17.10;99.90;;;;;;6143478;23;20440;-83
2021/09/18 02:44:59;;;;;;;15.03;13.50;;;17.10;99.90;;;;;;6140662;23;20410;-84
2021/09/18 02:47:26;;;;;;;16.03;14.53;;;16.90;99.90;;;;;;6141760;23;21020;-85
2021/09/18 02:49:53;;;;;;;16.40;14.80;;;17.00;99.90;;;;;;6144144;23;21131;-86
2021/09/18 02:52:20;;;;;;;16.20;14.60;;;17.00;99.90;;;;;;6147834;23;20513;-84
2021/09/18 02:54:47;;;;;;;16.13;14.57;;;16.80;99.90;;;;;;6157969;23;20410;-86
2021/09/18 02:57:14;;;;;;;16.07;14.47;;;16.70;99.90;;;;;;6158363;23;21006;-87
2021/09/18 02:59:41;;;;;;;15.27;13.87;;;16.70;99.90;;;;;;6134095;23;20965;-85
2021/09/18 03:02:07;;;;;;;17.73;15.90;;;16.90;99.90;;;;;;6144784;23;20417;-85
2021/09/18 03:04:34;;;;;;;16.53;15.03;;;17.00;99.90;;;;;;6147706;23;20414;-86
2021/09/18 03:07:02;;;;;;;16.20;14.77;;;16.90;99.90;;;;;;6145180;23;20473;-87
2021/09/18 03:09:29;;;;;;;16.87;15.27;;;16.80;99.90;;;;;;6138531;23;20635;-87
2021/09/18 03:11:55;;;;;;;17.00;15.50;;;16.80;99.90;;;;;;6149458;23;20714;-86
2021/09/18 03:14:22;;;;;;;15.30;13.83;;;16.80;99.90;;;;;;6146023;23;20410;-85
2021/09/18 03:16:49;;;;;;;15.77;14.13;;;16.70;99.90;;;;;;6148351;23;20438;-86
2021/09/18 03:19:16;;;;;;;15.40;14.10;;;16.60;99.90;;;;;;6142435;23;20513;-85
2021/09/18 03:21:46;;;;;;;14.70;13.30;;;16.50;99.90;;;;;;6147571;23;20445;-87
2021/09/18 03:24:18;;;;;;;14.77;13.37;;;16.70;99.90;;;;;;6146606;23;20414;-84
2021/09/18 03:26:50;;;;;;;16.13;14.53;;;16.70;99.90;;;;;;6145277;23;20863;-86
2021/09/18 03:29:24;;;;;;;16.23;14.73;;;16.80;99.90;;;;;;6151306;23;20421;-86
2021/09/18 03:31:53;;;;;;;18.03;16.07;;;16.90;99.90;;;;;;6147857;23;20442;-85
2021/09/18 03:34:28;;;;;;;16.33;14.63;;;16.90;99.90;;;;;;6145070;23;20405;-85
2021/09/18 03:36:59;;;;;;;17.23;15.50;;;16.80;99.90;;;;;;6145051;23;20758;-85
2021/09/18 03:39:32;;;;;;;16.23;14.63;;;16.60;99.90;;;;;;6147006;23;20406;-87
2021/09/18 03:41:59;;;;;;;15.63;14.13;;;16.60;99.90;;;;;;6146786;23;20418;-86
2021/09/18 03:44:26;;;;;;;15.70;14.20;;;16.50;99.90;;;;;;6139125;23;20861;-85
2021/09/18 03:46:53;;;;;;;16.90;15.20;;;16.40;99.90;;;;;;6149767;23;20442;-84
2021/09/18 03:49:25;;;;;;;17.90;16.00;;;16.30;99.90;;;;;;6150171;23;20756;-84
2021/09/18 03:52:13;;;;;;;16.13;14.43;;;16.20;99.90;;;;;;6142646;23;20429;-86
2021/09/18 03:54:40;;;;;;;17.53;15.73;;;16.20;99.90;;;;;;6146418;23;20409;-84
2021/09/18 03:57:13;;;;;;;20.33;18.20;;;16.20;99.90;;;;;;6148812;23;20436;-86
2021/09/18 03:59:45;;;;;;;19.87;18.07;;;16.20;99.90;;;;;;6149175;23;20400;-84
2021/09/18 04:02:15;;;;;;;18.20;16.33;;;16.00;99.90;;;;;;6152138;23;20421;-86
2021/09/18 04:04:44;;;;;;;18.00;16.10;;;15.90;99.90;;;;;;6151998;23;20457;-86
2021/09/18 04:07:15;;;;;;;18.00;16.27;;;15.80;99.90;;;;;;6149193;23;20504;-85
2021/09/18 04:09:45;;;;;;;17.80;15.97;;;15.80;99.90;;;;;;6143418;23;20461;-86
2021/09/18 04:12:15;;;;;;;18.37;16.60;;;15.80;99.90;;;;;;6151578;23;20507;-85
2021/09/18 04:14:48;;;;;;;18.90;17.10;;;16.00;99.90;;;;;;6151260;23;20433;-87
2021/09/18 04:17:15;;;;;;;19.07;17.10;;;15.90;99.90;;;;;;6150191;23;20438;-86
2021/09/18 04:19:42;;;;;;;20.93;17.30;;;16.10;99.90;;;;;;6148276;23;20410;-86
2021/09/18 04:22:12;;;;;;;18.90;17.10;;;16.30;99.90;;;;;;6150926;23;20421;-85
2021/09/18 04:24:39;;;;;;;20.70;18.63;;;16.30;99.90;;;;;;6155253;23;20445;-83
2021/09/18 04:27:08;;;;;;;20.37;18.20;;;16.20;99.90;;;;;;6150967;23;20444;-84
2021/09/18 04:29:42;;;;;;;21.33;19.30;;;16.10;99.90;;;;;;6146588;23;20413;-85
2021/09/18 04:32:09;;;;;;;19.57;17.57;;;15.90;99.90;;;;;;6159069;23;20472;-86
2021/09/18 04:34:42;;;;;;;18.07;16.17;;;16.00;99.90;;;;;;6169838;23;20871;-86
2021/09/18 04:37:09;;;;;;;17.63;15.83;;;16.00;99.90;;;;;;6161934;23;20454;-85
2021/09/18 04:39:41;;;;;;;16.60;15.03;;;15.80;99.90;;;;;;6167053;23;20417;-86
2021/09/18 04:42:10;;;;;;;18.53;16.70;;;15.70;99.90;;;;;;6170076;23;20398;-86
2021/09/18 04:44:38;;;;;;;18.00;16.10;;;16.00;99.90;;;;;;6169729;23;20406;-84
2021/09/18 04:47:09;;;;;;;19.00;17.10;;;16.10;99.90;;;;;;6163090;23;20957;-87
2021/09/18 04:49:39;;;;;;;17.97;16.17;;;16.10;99.90;;;;;;6154424;23;20410;-86
2021/09/18 04:52:12;;;;;;;17.53;15.93;;;16.00;99.90;;;;;;6150167;23;20437;-86
2021/09/18 04:54:42;;;;;;;17.80;16.13;;;15.90;99.90;;;;;;6134449;23;20413;-85
2021/09/18 04:57:11;;;;;;;18.03;16.20;;;15.80;99.90;;;;;;6153078;23;20436;-87
2021/09/18 04:59:38;;;;;;;16.90;15.13;;;16.00;99.90;;;;;;6153341;23;20437;-85
2021/09/18 05:02:05;;;;;;;17.17;15.60;;;16.10;99.90;;;;;;6149333;23;20858;-84
2021/09/18 05:04:32;;;;;;;18.13;15.73;;;16.00;99.90;;;;;;6151665;23;20445;-84
2021/09/18 05:07:10;;;;;;;18.07;16.37;;;16.10;99.90;;;;;;6148683;23;21203;-86
2021/09/18 05:09:45;;;;;;;19.93;17.67;;;16.20;99.90;;;;;;6148536;23;20417;-86
2021/09/18 05:12:14;;;;;;;17.53;15.70;;;16.10;99.90;;;;;;6147206;23;20437;-86
2021/09/18 05:14:42;;;;;;;17.90;16.10;;;16.00;99.90;;;;;;6150505;23;20413;-86
2021/09/18 05:17:11;;;;;;;17.50;15.90;;;16.00;99.90;;;;;;6148098;23;20511;-87
2021/09/18 05:19:41;;;;;;;17.57;15.87;;;15.90;99.90;;;;;;6146532;23;20493;-86
2021/09/18 05:22:09;;;;;;;18.60;15.17;;;15.90;99.90;;;;;;6148055;23;20426;-87
2021/09/18 05:24:36;;;;;;;16.67;13.90;;;15.90;99.90;;;;;;6148599;23;20422;-86
2021/09/18 05:27:06;;;;;;;15.97;14.27;;;15.90;99.90;;;;;;6149166;23;20466;-89
2021/09/18 05:29:33;;;;;;;14.33;12.93;;;15.80;99.90;;;;;;6150230;23;20414;-86
2021/09/18 05:32:04;;;;;;;16.20;13.67;;;15.80;99.90;;;;;;6149187;23;20417;-87
2021/09/18 05:34:36;;;;;;;15.23;13.80;;;15.80;99.90;;;;;;6148622;23;20460;-87
2021/09/18 05:37:09;;;;;;;17.67;14.40;;;15.70;99.90;;;;;;6147363;23;20684;-85
2021/09/18 05:39:38;;;;;;;15.07;13.63;;;15.60;99.90;;;;;;6145244;23;21095;-87
2021/09/18 05:42:08;;;;;;;15.00;13.57;;;15.60;99.90;;;;;;6146505;23;20485;-84
2021/09/18 05:44:37;;;;;;;15.83;14.23;;;15.70;99.90;;;;;;6143087;23;20418;-87
2021/09/18 05:47:09;;;;;;;15.03;13.37;;;15.60;99.90;;;;;;6147399;23;20430;-86
2021/09/18 05:49:39;;;;;;;14.17;12.87;;;15.50;99.90;;;;;;6141568;23;20422;-85
2021/09/18 05:52:12;;;;;;;15.33;13.93;;;15.70;99.90;;;;;;6147406;23;20540;-84
2021/09/18 05:54:42;;;;;;;14.73;13.33;;;15.80;99.90;;;;;;6144416;23;20702;-86
2021/09/18 05:57:09;;;;;;;17.43;15.57;;;15.80;99.90;;;;;;6052538;23;20988;-85
2021/09/18 05:59:43;;;;;;;17.50;15.70;;;16.00;99.90;;;;;;6119408;23;20402;-85
2021/09/18 06:02:10;;;;;;;16.90;15.00;;;16.00;99.90;;;;;;6151855;23;20410;-86
2021/09/18 06:04:40;;;;;;;17.57;15.87;;;16.00;99.90;;;;;;6144810;23;20414;-84
2021/09/18 06:07:12;;;;;;;16.80;15.07;;;16.00;99.90;;;;;;6148321;23;20496;-84
2021/09/18 06:09:41;;;;;;;15.03;13.63;;;16.50;99.90;;;;;;6148150;23;20401;-87
2021/09/18 06:12:13;;;;;;;15.20;13.70;;;17.20;99.90;;;;;;6148584;23;20452;-86
2021/09/18 06:14:43;;;;;;;14.17;12.77;;;18.00;99.90;;;;;;6143189;23;20781;-85
2021/09/18 06:17:14;;;;;;;13.73;12.17;;;18.90;99.90;;;;;;6148870;23;20437;-84
2021/09/18 06:19:44;;;;;;;13.57;12.23;;;19.30;99.90;;;;;;6148458;23;21039;-83
2021/09/18 06:22:14;;;;;;;13.47;12.23;;;19.40;99.90;;;;;;6147592;23;20461;-85
2021/09/18 06:24:46;;;;;;;13.37;11.97;;;19.60;99.90;;;;;;6149416;23;20445;-87
2021/09/18 06:27:19;;;;;;;13.60;12.30;;;19.30;99.90;;;;;;6150721;23;20426;-88
2021/09/18 06:29:52;;;;;;;15.27;13.67;;;19.40;99.90;;;;;;6152493;23;20479;-83
2021/09/18 06:32:23;;;;;;;14.37;13.07;;;19.40;99.90;;;;;;6153433;23;20480;-85
2021/09/18 06:34:53;;;;;;;14.07;12.77;;;18.70;99.90;;;;;;6147635;23;21050;-85
2021/09/18 06:37:26;;;;;;;15.30;13.80;;;18.20;99.90;;;;;;6150461;23;20469;-86
2021/09/18 06:39:56;;;;;;;14.60;13.20;;;17.90;99.90;;;;;;6147844;23;20406;-86
2021/09/18 06:42:34;;;;;;;15.40;14.00;;;17.60;99.90;;;;;;6149197;23;20518;-85
2021/09/18 06:45:08;;;;;;;15.93;14.33;;;17.40;99.90;;;;;;6148786;23;20413;-85
2021/09/18 06:47:37;;;;;;;16.90;15.27;;;17.10;99.90;;;;;;6146333;23;20442;-85
2021/09/18 06:50:27;;;;;;;19.90;14.90;;;17.10;99.90;;;;;;6147100;23;20461;-86
2021/09/18 06:53:00;;;;;;;14.13;12.80;;;17.50;99.90;;;;;;6155669;23;20480;-85
2021/09/18 06:55:29;;;;;;;16.57;14.87;;;18.50;99.90;;;;;;6160122;23;20425;-86
2021/09/18 06:58:00;;;;;;;14.30;13.00;;;19.00;99.90;;;;;;6153551;23;20441;-87
2021/09/18 07:00:30;;;;;;;14.23;12.97;;;19.30;99.90;;;;;;6154972;23;20409;-86
2021/09/18 07:03:00;;;;;;;13.83;12.50;;;19.00;99.90;;;;;;6152830;23;20469;-85
2021/09/18 07:05:35;;;;;;;16.20;14.17;;;18.60;99.90;;;;;;6153293;23;20409;-85
2021/09/18 07:08:02;;;;;;;15.63;14.03;;;18.10;99.90;;;;;;6154883;23;20448;-85
2021/09/18 07:10:40;;;;;;;13.27;12.07;;;17.60;99.90;;;;;;6163122;23;20398;-84
2021/09/18 07:13:09;;;;;;;14.23;11.83;;;17.60;99.90;;;;;;6154139;23;20452;-84
2021/09/18 07:15:42;;;;;;;13.57;12.17;;;17.80;99.90;;;;;;6150663;23;20848;-86
2021/09/18 07:18:15;;;;;;;12.37;11.37;;;18.60;99.90;;;;;;6153054;23;20444;-85
2021/09/18 07:20:51;;;;;;;13.63;12.20;;;19.50;99.90;;;;;;6155042;23;20975;-86
2021/09/18 07:23:21;;;;;;;12.93;11.73;;;20.00;99.50;;;;;;6155078;23;20439;-83
2021/09/18 07:26:03;;;;;;;12.47;11.27;;;20.10;98.60;;;;;;6159632;23;20462;-85
2021/09/18 07:28:39;;;;;;;12.70;11.37;;;20.20;98.70;;;;;;6155255;23;21290;-86
2021/09/18 07:31:12;;;;;;;12.90;11.70;;;21.00;98.00;;;;;;6159328;23;20982;-85
2021/09/18 07:33:44;;;;;;;13.67;11.30;;;21.80;96.40;;;;;;6156059;23;20452;-84
2021/09/18 07:36:15;;;;;;;11.57;10.50;;;22.40;94.90;;;;;;6144988;23;20437;-85
2021/09/18 07:38:48;;;;;;;11.87;10.77;;;23.30;93.40;;;;;;6170443;23;20469;-86
2021/09/18 07:41:21;;;;;;;10.77;9.83;;;23.60;92.30;;;;;;6167890;23;20451;-84
2021/09/18 07:43:51;;;;;;;12.37;11.27;;;24.10;91.40;;;;;;6172609;23;20432;-84
2021/09/18 07:46:18;;;;;;;11.77;10.67;;;24.40;90.00;;;;;;6161893;23;20426;-87
2021/09/18 07:48:50;;;;;;;12.40;11.20;;;24.40;89.90;;;;;;6159060;23;20424;-85
2021/09/18 07:51:20;;;;;;;11.23;10.23;;;24.90;88.90;;;;;;6157231;23;20469;-86
2021/09/18 07:54:02;;;;;;;10.97;9.87;;;25.00;88.60;;;;;;6157672;23;20504;-86
2021/09/18 07:56:31;;;;;;;10.93;9.93;;;25.70;84.90;;;;;;6179869;23;20480;-87
2021/09/18 07:59:01;;;;;;;12.03;11.03;;;26.20;82.90;;;;;;6180754;23;20469;-87
2021/09/18 08:01:30;;;;;;;10.60;9.70;;;26.20;81.30;;;;;;6180751;23;20401;-86
2021/09/18 08:04:10;;;;;;;12.23;11.00;;;24.90;83.50;;;;;;6200697;23;20409;-86
2021/09/18 08:06:43;;;;;;;10.83;9.83;;;23.70;88.90;;;;;;6179283;23;20429;-86
2021/09/18 08:09:23;;;;;;;11.13;10.20;;;22.90;90.70;;;;;;6190346;23;20414;-85
2021/09/18 08:11:58;;;;;;;11.60;10.60;;;23.00;91.00;;;;;;6175971;23;20402;-87
2021/09/18 08:14:30;;;;;;;12.50;11.40;;;22.10;92.10;;;;;;6176659;23;20468;-86
2021/09/18 08:16:59;;;;;;;13.00;11.90;;;21.50;93.30;;;;;;6157694;23;21166;-87
2021/09/18 08:19:33;;;;;;;12.60;11.40;;;20.80;94.90;;;;;;6155138;23;20422;-84
2021/09/18 08:22:03;;;;;;;12.77;11.73;;;20.70;96.20;;;;;;6154704;23;21065;-84
2021/09/18 08:24:33;;;;;;;12.27;11.17;;;20.70;96.30;;;;;;6159734;23;20427;-84
2021/09/18 08:27:00;;;;;;;14.30;12.97;;;20.40;96.80;;;;;;6154885;23;20441;-85
2021/09/18 08:29:29;;;;;;;14.17;11.83;;;20.30;97.40;;;;;;6155165;23;20914;-83
2021/09/18 08:32:02;;;;;;;13.83;12.53;;;20.10;97.80;;;;;;6161335;23;20406;-86
2021/09/18 08:34:38;;;;;;;14.00;12.80;;;20.20;98.00;;;;;;6159133;23;20520;-85
2021/09/18 08:37:08;;;;;;;16.00;14.60;;;20.00;98.20;;;;;;6155182;23;20441;-86
2021/09/18 08:39:39;;;;;;;14.70;13.13;;;20.10;98.50;;;;;;6157969;23;20736;-85
2021/09/18 08:42:11;;;;;;;14.70;13.30;;;20.20;98.50;;;;;;6158855;23;20374;-84
2021/09/18 08:44:42;;;;;;;14.90;13.60;;;20.10;98.80;;;;;;6157588;23;20410;-86
2021/09/18 08:47:14;;;;;;;13.77;12.57;;;20.10;99.00;;;;;;6152282;23;20445;-83
2021/09/18 08:49:41;;;;;;;15.53;14.00;;;20.50;98.60;;;;;;6152871;23;21006;-87
2021/09/18 08:52:12;;;;;;;14.17;12.97;;;20.50;97.90;;;;;;6150185;23;20450;-87
2021/09/18 08:54:41;;;;;;;15.30;14.00;;;20.40;98.50;;;;;;6150248;23;20445;-84
2021/09/18 08:57:12;;;;;;;16.57;15.17;;;20.40;98.50;;;;;;6151908;23;20426;-83
2021/09/18 08:59:39;;;;;;;17.20;15.60;;;20.40;98.60;;;;;;6148932;23;20410;-83
2021/09/18 09:02:30;;;;;;;17.80;16.10;;;20.40;98.50;;;;;;6165713;23;20421;-85
2021/09/18 09:05:14;;;;;;;17.10;15.60;;;20.50;98.30;;;;;;6167416;23;20394;-85
2021/09/18 09:08:21;;;;;;;17.10;15.47;;;20.60;98.10;;;;;;6166731;23;20508;-85
2021/09/18 09:10:53;;;;;;;21.03;17.50;;;20.60;98.20;;;;;;6144327;23;20413;-86
2021/09/18 09:13:25;;;;;;;19.23;17.30;;;20.60;98.30;;;;;;6151828;23;20477;-85
2021/09/18 09:16:14;;;;;;;21.37;19.30;;;20.50;98.30;;;;;;6153742;23;20861;-86
2021/09/18 09:18:51;;;;;;;22.90;20.60;;;20.60;98.40;;;;;;6126544;23;20414;-85
2021/09/18 09:21:29;;;;;;;22.23;20.13;;;20.60;98.00;;;;;;6163290;23;20433;-86
2021/09/18 09:24:10;;;;;;;23.53;21.03;;;20.60;97.80;;;;;;6153311;23;20429;-85
2021/09/18 09:26:42;;;;;;;22.23;20.03;;;20.70;98.10;;;;;;6143473;23;20549;-87
2021/09/18 09:29:15;;;;;;;24.43;21.83;;;21.00;97.80;;;;;;6120145;23;20438;-84
2021/09/18 09:31:46;;;;;;;27.07;24.27;;;21.10;97.10;;;;;;6125592;23;20415;-87
2021/09/18 09:34:23;;;;;;;28.27;25.27;;;21.20;96.90;;;;;;6148451;23;20544;-86
2021/09/18 09:36:53;;;;;;;26.13;23.43;;;21.20;96.70;;;;;;6163953;23;20448;-86
2021/09/18 09:39:57;;;;;;;31.03;27.70;;;21.20;97.20;;;;;;6139448;23;20445;-86
2021/09/18 09:42:52;;;;;;;25.63;22.90;;;21.30;97.00;;;;;;6119649;23;21035;-86
2021/09/18 09:45:48;;;;;;;24.77;22.17;;;22.00;96.50;;;;;;6119613;23;20401;-87
2021/09/18 09:48:22;;;;;;;25.60;23.00;;;23.20;95.20;;;;;;6126780;23;21027;-88
2021/09/18 09:51:11;;;;;;;27.33;24.63;;;24.00;92.90;;;;;;6125705;23;21064;-87
2021/09/18 09:53:41;;;;;;;26.10;23.60;;;25.20;90.30;;;;;;6139585;23;20450;-85
2021/09/18 09:56:30;;;;;;;24.73;22.30;;;25.70;88.00;;;;;;6127801;23;20441;-86
2021/09/18 09:59:02;;;;;;;22.97;20.70;;;25.40;88.00;;;;;;6124006;23;20413;-85
2021/09/18 10:01:37;;;;;;;24.10;21.70;;;25.90;86.60;;;;;;6123620;23;20414;-85
2021/09/18 10:04:11;;;;;;;25.00;22.60;;;26.60;84.70;;;;;;6117438;23;20747;-86
2021/09/18 10:06:48;;;;;;;25.10;22.80;;;27.80;79.10;;;;;;6124298;23;20429;-86
2021/09/18 10:09:25;;;;;;;22.53;20.33;;;27.70;77.70;;;;;;6131899;23;20417;-87
2021/09/18 10:12:01;;;;;;;24.93;22.73;;;28.20;76.10;;;;;;6121964;23;20409;-86
2021/09/18 10:14:34;;;;;;;24.53;22.23;;;27.20;77.50;;;;;;6146900;23;20449;-86
2021/09/18 10:17:02;;;;;;;25.17;23.07;;;27.30;78.70;;;;;;6144584;23;20425;-86
2021/09/18 10:24:56;;;;;;;27.20;24.60;;;27.90;74.20;;;;;;6148139;23;20448;-86
2021/09/18 10:27:32;;;;;;;29.57;26.73;;;28.10;73.30;;;;;;6124250;23;20517;-86
2021/09/18 10:30:32;;;;;;;28.50;25.53;;;27.20;75.50;;;;;;6149300;23;20972;-85
2021/09/18 10:33:34;;;;;;;23.43;21.33;;;26.60;77.70;;;;;;6127921;23;20413;-85
2021/09/18 10:36:16;;;;;;;25.37;23.00;;;26.50;80.10;;;;;;6105326;23;20425;-85
2021/09/18 10:38:49;;;;;;;27.40;24.77;;;27.40;76.80;;;;;;6137185;23;20919;-86
2021/09/18 10:41:49;;;;;;;24.63;22.43;;;27.50;75.70;;;;;;6125459;23;20520;-86
2021/09/18 10:44:21;;;;;;;25.13;22.47;;;27.30;75.70;;;;;;6107291;23;20942;-87
2021/09/18 10:47:05;;;;;;;26.20;23.43;;;27.50;76.60;;;;;;6105923;23;20473;-86
2021/09/18 10:49:49;;;;;;;26.07;23.50;;;28.20;73.10;;;;;;6124257;23;20398;-86
2021/09/18 10:59:09;;;;;;;24.30;21.90;;;28.20;72.20;;;;;;6159032;23;20501;-86
2021/09/18 11:02:33;;;;;;;22.87;20.90;;;27.90;72.00;;;;;;6142437;23;20406;-87
2021/09/18 11:05:30;;;;;;;25.20;22.90;;;27.90;72.20;;;;;;6146799;23;20611;-88
2021/09/18 11:08:29;;;;;;;22.97;21.07;;;28.50;70.90;;;;;;6129229;23;20446;-87
2021/09/18 11:11:55;;;;;;;20.50;18.60;;;28.10;71.80;;;;;;6124463;23;20424;-85
2021/09/18 11:15:20;;;;;;;13.43;12.13;;;29.00;66.60;;;;;;6121338;23;20453;-86
2021/09/18 11:18:16;;;;;;;10.17;9.20;;;28.40;63.20;;;;;;6149510;23;20430;-86
2021/09/18 11:21:22;;;;;;;13.53;12.33;;;28.50;60.10;;;;;;6127821;23;20476;-86
2021/09/18 11:24:20;;;;;;;11.20;10.30;;;28.50;61.40;;;;;;6123360;23;20501;-85
2021/09/18 11:26:58;;;;;;;9.90;9.10;;;28.30;61.80;;;;;;6120168;23;20502;-86
2021/09/18 11:30:33;;;;;;;;;;;;;;;;;;;;;
2021/09/18 11:37:15;;;;;;;9.67;8.77;;;28.70;60.00;;;;;;6024562;23;20432;-86
2021/09/18 11:39:42;;;;;;;10.43;9.53;;;28.90;59.70;;;;;;6111484;23;20407;-86
2021/09/18 11:42:53;;;;;;;;;;;;;;;;;;;;;
2021/09/18 11:45:50;;;;;;;9.50;8.70;;;30.20;56.50;;;;;;6149038;23;20959;-85
2021/09/18 11:48:55;;;;;;;8.03;7.43;;;29.50;56.60;;;;;;6143385;23;20522;-87
2021/09/18 11:51:26;;;;;;;8.33;7.63;;;29.70;56.30;;;;;;6123002;23;20421;-87
2021/09/18 11:54:07;;;;;;;6.97;6.47;;;29.50;56.20;;;;;;6123432;23;20443;-86
2021/09/18 11:56:39;;;;;;;7.30;6.80;;;29.30;55.30;;;;;;6149416;23;20453;-88
2021/09/18 11:59:29;;;;;;;8.07;7.47;;;28.80;55.90;;;;;;6139499;23;20426;-87
2021/09/18 12:02:34;;;;;;;7.37;6.80;;;28.70;56.40;;;;;;6150345;23;20425;-88
2021/09/18 12:08:35;;;;;;;8.47;7.80;;;30.00;54.70;;;;;;6154180;23;20516;-87
2021/09/18 12:11:08;;;;;;;7.87;7.20;;;30.80;52.50;;;;;;6132903;23;20386;-86
2021/09/18 12:13:43;;;;;;;7.00;6.50;;;30.10;53.20;;;;;;6139833;23;20402;-85
2021/09/18 12:16:25;;;;;;;7.63;6.93;;;29.70;53.60;;;;;;6148998;23;20532;-87
2021/09/18 12:18:57;;;;;;;6.90;6.40;;;29.30;54.30;;;;;;6171990;23;20460;-87
2021/09/18 12:21:35;;;;;;;7.83;7.23;;;29.80;53.20;;;;;;6149263;23;20414;-87
2021/09/18 12:24:10;;;;;;;7.50;6.80;;;29.50;53.80;;;;;;6145194;23;20507;-86
2021/09/18 12:26:48;;;;;;;7.77;7.17;;;29.70;53.40;;;;;;6163936;23;20465;-87
2021/09/18 12:29:31;;;;;;;7.17;6.47;;;29.20;53.90;;;;;;6127256;23;20409;-84
2021/09/18 12:32:18;;;;;;;7.70;7.10;;;29.00;54.60;;;;;;6128034;23;20476;-89
2021/09/18 12:34:49;;;;;;;7.93;7.30;;;29.70;53.00;;;;;;6125638;23;20444;-86
2021/09/18 12:37:32;;;;;;;8.40;7.70;;;29.80;52.80;;;;;;6156363;23;20438;-85
2021/09/18 12:40:50;;;;;;;7.47;6.80;;;29.70;52.10;;;;;;6058170;23;20392;-85
2021/09/18 12:43:21;;;;;;;7.83;7.13;;;29.30;52.70;;;;;;6052503;23;20427;-85
2021/09/18 12:46:19;;;;;;;8.50;7.70;;;29.60;52.40;;;;;;6059798;23;20467;-86
2021/09/18 12:48:58;;;;;;;9.03;8.13;;;29.20;52.70;;;;;;6122694;23;20414;-86
2021/09/18 12:51:39;;;;;;;8.40;7.60;;;29.10;52.10;;;;;;6135276;23;20406;-86
2021/09/18 12:54:15;;;;;;;8.00;7.30;;;28.50;53.00;;;;;;6129550;23;20421;-86
2021/09/18 12:56:42;;;;;;;8.40;7.70;;;27.70;54.80;;;;;;6126017;23;20433;-85
2021/09/18 12:59:22;;;;;;;9.50;8.40;;;27.50;56.40;;;;;;6138829;23;20425;-86
2021/09/18 13:01:59;;;;;;;8.23;7.50;;;27.30;56.70;;;;;;6134464;23;20433;-84
2021/09/18 13:04:31;;;;;;;10.23;9.33;;;27.70;56.50;;;;;;6131966;23;20425;-85
2021/09/18 13:07:09;;;;;;;8.97;8.17;;;27.80;56.20;;;;;;6164955;23;20429;-88
2021/09/18 13:09:41;;;;;;;9.27;8.53;;;27.60;56.30;;;;;;6011124;23;20421;-86
2021/09/18 13:12:28;;;;;;;8.30;7.50;;;27.40;57.70;;;;;;6177555;23;20414;-84
2021/09/18 13:15:11;;;;;;;9.90;9.07;;;27.50;57.30;;;;;;6141948;23;20450;-86
2021/09/18 13:17:56;;;;;;;8.93;8.13;;;27.90;57.00;;;;;;6126366;23;20497;-88
2021/09/18 13:20:29;;;;;;;7.30;6.70;;;28.70;55.10;;;;;;6128109;23;20414;-85
2021/09/18 13:23:03;;;;;;;7.23;6.60;;;28.50;55.00;;;;;;6125072;23;20445;-85
2021/09/18 13:25:35;;;;;;;7.03;6.47;;;28.70;54.80;;;;;;6133934;23;20449;-87
2021/09/18 13:28:05;;;;;;;8.60;7.90;;;28.90;53.90;;;;;;6139684;23;20500;-89